createdAt,value
2018-11-21T00:00:26.352Z,6.93
2018-11-21T00:02:55.314Z,7.50
2018-11-21T00:05:23.467Z,7.23
2018-11-21T00:07:51.505Z,8.20
2018-11-21T00:12:55.061Z,8.10
2018-11-21T00:15:23.054Z,7.13
2018-11-21T00:17:51.404Z,7.43
2018-11-21T00:20:19.762Z,6.70
2018-11-21T00:22:48.101Z,7.03
2018-11-21T00:25:16.234Z,7.53
2018-11-21T00:27:44.283Z,7.67
2018-11-21T00:30:13.786Z,8.00
2018-11-21T00:32:41.810Z,4.43
2018-11-21T00:35:10.443Z,7.07
2018-11-21T00:37:38.571Z,7.83
2018-11-21T00:40:09.254Z,8.13
2018-11-21T00:42:38.115Z,6.63
2018-11-21T00:45:06.583Z,7.83
2018-11-21T00:47:35.243Z,7.13
2018-11-21T00:50:03.586Z,6.67
2018-11-21T00:52:31.840Z,8.00
2018-11-21T00:55:00.168Z,7.77
2018-11-21T00:57:28.464Z,6.73
2018-11-21T00:59:56.565Z,6.70
2018-11-21T01:02:24.671Z,6.70
2018-11-21T01:04:52.977Z,8.40
2018-11-21T01:07:21.569Z,6.63
2018-11-21T01:09:49.737Z,7.10
2018-11-21T01:12:18.021Z,7.03
2018-11-21T01:14:46.187Z,7.87
2018-11-21T01:17:14.605Z,6.73
2018-11-21T01:19:42.774Z,8.40
2018-11-21T01:22:10.841Z,6.80
2018-11-21T01:24:38.954Z,7.80
2018-11-21T01:27:07.031Z,8.07
2018-11-21T01:29:35.859Z,8.13
2018-11-21T01:32:03.955Z,7.43
2018-11-21T01:34:32.046Z,7.57
2018-11-21T01:37:00.462Z,7.60
2018-11-21T01:39:29.174Z,7.17
2018-11-21T01:41:57.321Z,8.07
2018-11-21T01:44:25.456Z,7.70
2018-11-21T01:46:53.784Z,8.67
2018-11-21T01:49:22.029Z,7.97
2018-11-21T01:51:50.114Z,9.77
2018-11-21T01:54:18.362Z,7.67
2018-11-21T01:56:47.006Z,6.70
2018-11-21T01:59:15.371Z,8.00
2018-11-21T02:01:43.857Z,8.80
2018-11-21T02:04:11.988Z,8.23
2018-11-21T02:06:40.071Z,7.53
2018-11-21T02:09:12.423Z,7.93
2018-11-21T02:11:40.612Z,7.17
2018-11-21T02:14:08.909Z,6.73
2018-11-21T02:16:36.964Z,7.53
2018-11-21T02:19:05.435Z,8.03
2018-11-21T02:21:33.729Z,8.00
2018-11-21T02:24:01.752Z,8.63
2018-11-21T02:26:29.849Z,9.13
2018-11-21T02:28:58.404Z,6.47
2018-11-21T02:31:26.389Z,7.37
2018-11-21T02:33:54.506Z,7.50
2018-11-21T02:36:22.559Z,8.00
2018-11-21T02:38:50.942Z,8.27
2018-11-21T02:41:19.020Z,7.60
2018-11-21T02:43:47.118Z,9.77
2018-11-21T02:46:15.122Z,9.13
2018-11-21T02:48:43.488Z,8.00
2018-11-21T02:51:11.576Z,9.60
2018-11-21T02:53:40.098Z,8.70
2018-11-21T02:56:09.594Z,9.17
2018-11-21T02:58:37.807Z,7.83
2018-11-21T03:01:06.186Z,7.97
2018-11-21T03:03:34.259Z,7.90
2018-11-21T03:06:02.552Z,7.40
2018-11-21T03:08:30.926Z,8.80
2018-11-21T03:10:59.136Z,10.60
2018-11-21T03:13:28.552Z,7.80
2018-11-21T03:15:55.897Z,7.63
2018-11-21T03:18:23.965Z,9.00
2018-11-21T03:20:52.039Z,8.40
2018-11-21T03:23:20.319Z,8.60
2018-11-21T03:25:48.397Z,7.50
2018-11-21T03:28:16.760Z,8.07
2018-11-21T03:30:45.095Z,8.80
2018-11-21T03:33:13.394Z,8.40
2018-11-21T03:35:42.006Z,7.73
2018-11-21T03:38:10.088Z,8.77
2018-11-21T03:40:38.153Z,8.87
2018-11-21T03:43:06.256Z,6.87
2018-11-21T03:45:34.362Z,9.27
2018-11-21T03:48:02.487Z,7.97
2018-11-21T03:50:30.575Z,9.13
2018-11-21T03:52:58.612Z,9.13
2018-11-21T03:55:26.938Z,8.63
2018-11-21T03:57:55.139Z,8.23
2018-11-21T04:00:23.905Z,8.13
2018-11-21T04:02:51.917Z,7.30
2018-11-21T04:05:20.319Z,9.07
2018-11-21T04:07:48.367Z,8.33
2018-11-21T04:10:16.851Z,8.00
2018-11-21T04:12:45.248Z,6.63
2018-11-21T04:15:13.938Z,7.30
2018-11-21T04:17:42.027Z,8.53
2018-11-21T04:20:10.413Z,9.43
2018-11-21T04:22:38.997Z,7.47
2018-11-21T04:25:07.551Z,6.63
2018-11-21T04:27:35.614Z,9.20
2018-11-21T04:30:04.027Z,7.50
2018-11-21T04:32:32.144Z,8.77
2018-11-21T04:35:00.811Z,8.50
2018-11-21T04:37:28.832Z,9.33
2018-11-21T04:39:57.360Z,8.20
2018-11-21T04:42:25.443Z,8.70
2018-11-21T04:44:53.765Z,8.47
2018-11-21T04:47:22.112Z,8.60
2018-11-21T04:49:50.217Z,8.63
2018-11-21T04:52:18.297Z,8.30
2018-11-21T04:54:46.668Z,6.73
2018-11-21T04:57:14.725Z,7.33
2018-11-21T04:59:42.865Z,7.73
2018-11-21T05:02:10.930Z,7.00
2018-11-21T05:04:39.002Z,8.07
2018-11-21T05:07:07.038Z,10.10
2018-11-21T05:09:35.139Z,7.37
2018-11-21T05:12:03.307Z,8.83
2018-11-21T05:14:31.607Z,8.00
2018-11-21T05:17:00.026Z,7.47
2018-11-21T05:19:28.117Z,6.77
2018-11-21T05:21:56.183Z,8.30
2018-11-21T05:24:24.343Z,7.17
2018-11-21T05:26:52.426Z,7.57
2018-11-21T05:29:20.760Z,6.80
2018-11-21T05:31:49.476Z,6.13
2018-11-21T05:34:17.685Z,8.43
2018-11-21T05:36:46.305Z,8.40
2018-11-21T05:39:14.344Z,8.37
2018-11-21T05:41:42.398Z,7.57
2018-11-21T05:44:10.890Z,7.53
2018-11-21T05:46:39.065Z,8.17
2018-11-21T05:49:07.344Z,7.43
2018-11-21T05:51:35.882Z,7.37
2018-11-21T05:54:04.001Z,7.77
2018-11-21T05:56:32.271Z,7.93
2018-11-21T05:59:00.666Z,7.40
2018-11-21T06:01:28.946Z,7.60
2018-11-21T06:03:57.052Z,6.47
2018-11-21T06:06:25.206Z,7.37
2018-11-21T06:08:53.611Z,7.73
2018-11-21T06:11:21.748Z,6.77
2018-11-21T06:13:49.785Z,6.83
2018-11-21T06:16:18.359Z,8.47
2018-11-21T06:18:47.706Z,7.77
2018-11-21T06:21:15.756Z,8.00
2018-11-21T06:23:43.836Z,7.43
2018-11-21T06:26:11.874Z,8.33
2018-11-21T06:28:40.321Z,7.90
2018-11-21T06:31:10.352Z,6.77
2018-11-21T06:33:38.370Z,7.37
2018-11-21T06:36:06.462Z,7.73
2018-11-21T06:38:34.524Z,7.10
2018-11-21T06:41:02.938Z,6.60
2018-11-21T06:43:31.212Z,7.57
2018-11-21T06:45:59.283Z,8.13
2018-11-21T06:48:27.353Z,7.97
2018-11-21T06:50:55.428Z,7.50
2018-11-21T06:53:23.456Z,7.07
2018-11-21T06:55:52.009Z,6.83
2018-11-21T06:58:20.175Z,8.23
2018-11-21T07:00:48.272Z,6.87
2018-11-21T07:03:16.422Z,6.90
2018-11-21T07:05:45.006Z,7.13
2018-11-21T07:08:13.490Z,7.77
2018-11-21T07:10:41.728Z,7.10
2018-11-21T07:13:11.191Z,7.10
2018-11-21T07:15:38.223Z,6.40
2018-11-21T07:18:06.335Z,8.10
2018-11-21T07:20:34.961Z,8.20
2018-11-21T07:23:03.233Z,7.03
2018-11-21T07:25:31.307Z,7.17
2018-11-21T07:27:59.442Z,6.43
2018-11-21T07:30:27.610Z,7.73
2018-11-21T07:32:55.976Z,6.60
2018-11-21T07:35:24.106Z,7.97
2018-11-21T07:37:52.764Z,6.43
2018-11-21T07:40:21.222Z,7.77
2018-11-21T07:42:49.314Z,6.90
2018-11-21T07:45:17.425Z,8.07
2018-11-21T07:47:46.074Z,6.93
2018-11-21T07:50:19.159Z,7.70
2018-11-21T07:52:47.233Z,6.73
2018-11-21T07:55:15.333Z,7.20
2018-11-21T07:57:47.870Z,7.37
2018-11-21T08:01:08.298Z,6.13
2018-11-21T08:03:47.229Z,6.40
2018-11-21T08:06:33.336Z,8.10
2018-11-21T08:09:21.392Z,7.37
2018-11-21T08:12:08.761Z,7.17
2018-11-21T08:14:54.834Z,7.43
2018-11-21T08:17:43.242Z,6.10
2018-11-21T08:20:48.613Z,6.47
2018-11-21T08:23:29.721Z,6.83
2018-11-21T08:26:18.992Z,8.23
2018-11-21T08:28:48.049Z,7.33
2018-11-21T08:31:16.278Z,6.73
2018-11-21T08:33:44.423Z,6.90
2018-11-21T08:36:12.584Z,7.67
2018-11-21T08:38:40.708Z,5.73
2018-11-21T08:41:08.748Z,7.10
2018-11-21T08:43:36.832Z,7.77
2018-11-21T08:46:05.500Z,7.40
2018-11-21T08:48:33.594Z,6.57
2018-11-21T08:51:02.675Z,7.47
2018-11-21T08:53:30.801Z,7.27
2018-11-21T08:55:59.105Z,7.23
2018-11-21T08:58:27.198Z,6.73
2018-11-21T09:00:55.672Z,7.57
2018-11-21T09:03:24.178Z,7.43
2018-11-21T09:05:52.249Z,6.27
2018-11-21T09:08:20.322Z,8.40
2018-11-21T09:10:49.542Z,6.00
2018-11-21T09:13:17.595Z,7.07
2018-11-21T09:15:45.960Z,7.87
2018-11-21T09:18:14.290Z,7.93
2018-11-21T09:20:42.589Z,8.97
2018-11-21T09:23:10.783Z,7.93
2018-11-21T09:25:39.777Z,9.13
2018-11-21T09:28:07.850Z,7.00
2018-11-21T09:30:36.035Z,6.47
2018-11-21T09:33:04.731Z,8.63
2018-11-21T09:35:32.869Z,5.77
2018-11-21T09:38:00.973Z,7.87
2018-11-21T09:40:29.397Z,7.20
2018-11-21T09:42:57.463Z,7.50
2018-11-21T09:45:25.924Z,8.63
2018-11-21T09:47:54.615Z,5.97
2018-11-21T09:50:24.444Z,8.20
2018-11-21T09:52:52.514Z,7.93
2018-11-21T09:55:20.535Z,6.07
2018-11-21T09:57:48.633Z,6.77
2018-11-21T10:00:54.061Z,8.73
2018-11-21T10:03:24.772Z,8.30
2018-11-21T10:06:01.652Z,7.37
2018-11-21T10:08:34.681Z,8.23
2018-11-21T10:11:02.777Z,8.03
2018-11-21T10:13:31.052Z,8.03
2018-11-21T10:16:01.011Z,9.20
2018-11-21T10:18:27.114Z,8.87
2018-11-21T10:20:55.416Z,9.30
2018-11-21T10:23:23.628Z,4.73
2018-11-21T10:25:51.957Z,8.50
2018-11-21T10:28:20.831Z,7.40
2018-11-21T10:30:48.878Z,9.17
2018-11-21T10:33:16.939Z,9.10
2018-11-21T10:35:45.263Z,9.40
2018-11-21T10:38:13.564Z,10.17
2018-11-21T10:40:41.690Z,9.60
2018-11-21T10:43:09.829Z,9.50
2018-11-21T10:45:37.971Z,10.13
2018-11-21T10:48:06.332Z,9.30
2018-11-21T10:50:34.657Z,9.00
2018-11-21T10:53:02.751Z,7.23
2018-11-21T10:55:31.529Z,7.87
2018-11-21T10:57:59.824Z,8.53
2018-11-21T11:00:45.989Z,7.73
2018-11-21T11:03:31.299Z,9.60
2018-11-21T11:06:13.095Z,9.63
2018-11-21T11:09:08.968Z,10.13
2018-11-21T11:11:54.835Z,10.60
2018-11-21T11:14:41.102Z,7.03
2018-11-21T11:17:34.224Z,9.57
2018-11-21T11:20:27.708Z,10.87
2018-11-21T11:23:07.102Z,8.60
2018-11-21T11:25:43.966Z,8.90
2018-11-21T11:28:44.524Z,9.30
2018-11-21T11:31:20.883Z,9.80
2018-11-21T11:34:20.761Z,8.67
2018-11-21T11:37:06.884Z,8.73
2018-11-21T11:39:50.333Z,7.63
2018-11-21T11:42:31.788Z,8.70
2018-11-21T11:45:17.878Z,9.97
2018-11-21T11:48:10.971Z,8.30
2018-11-21T11:51:03.963Z,8.47
2018-11-21T11:53:50.273Z,8.90
2018-11-21T11:56:26.760Z,8.83
2018-11-21T11:59:11.100Z,8.83
2018-11-21T12:01:53.539Z,9.37
2018-11-21T12:04:33.180Z,7.80
2018-11-21T12:07:18.866Z,10.20
2018-11-21T12:10:18.055Z,9.17
2018-11-21T12:13:15.765Z,10.20
2018-11-21T12:16:06.616Z,9.03
2018-11-21T12:19:06.394Z,8.80
2018-11-21T12:21:54.080Z,8.63
2018-11-21T12:24:35.608Z,8.83
2018-11-21T12:27:21.853Z,7.53
2018-11-21T12:30:01.519Z,8.57
2018-11-21T12:32:46.085Z,8.87
2018-11-21T12:35:51.542Z,9.30
2018-11-21T12:38:40.605Z,8.90
2018-11-21T12:41:32.328Z,9.13
2018-11-21T12:44:18.110Z,8.80
2018-11-21T12:47:04.838Z,9.53
2018-11-21T12:49:51.029Z,7.80
2018-11-21T12:52:30.262Z,8.53
2018-11-21T12:55:20.450Z,8.70
2018-11-21T12:57:58.468Z,8.17
2018-11-21T13:00:44.641Z,9.50
2018-11-21T13:03:35.131Z,7.53
2018-11-21T13:06:19.764Z,8.60
2018-11-21T13:09:05.475Z,8.17
2018-11-21T13:11:45.345Z,8.87
2018-11-21T13:14:35.414Z,8.40
2018-11-21T13:17:28.868Z,8.23
2018-11-21T13:20:22.290Z,8.00
2018-11-21T13:23:08.155Z,7.33
2018-11-21T13:25:50.278Z,7.07
2018-11-21T13:28:48.705Z,8.43
2018-11-21T13:31:34.541Z,8.43
2018-11-21T13:34:23.568Z,9.50
2018-11-21T13:37:01.415Z,8.00
2018-11-21T13:39:47.331Z,8.17
2018-11-21T13:42:31.945Z,7.93
2018-11-21T13:45:21.413Z,8.67
2018-11-21T13:48:17.782Z,7.27
2018-11-21T13:51:23.074Z,7.20
2018-11-21T13:54:25.330Z,6.90
2018-11-21T13:56:53.578Z,8.53
2018-11-21T13:59:22.083Z,9.37
2018-11-21T14:01:50.257Z,8.67
2018-11-21T14:04:18.409Z,8.10
2018-11-21T14:06:46.494Z,8.17
2018-11-21T14:09:19.383Z,8.23
2018-11-21T14:11:48.230Z,8.07
2018-11-21T14:14:16.279Z,8.53
2018-11-21T14:16:44.425Z,6.10
2018-11-21T14:19:13.049Z,7.53
2018-11-21T14:21:41.397Z,9.33
2018-11-21T14:24:09.869Z,9.40
2018-11-21T14:26:37.885Z,6.47
2018-11-21T14:29:06.060Z,8.00
2018-11-21T14:31:34.105Z,8.20
2018-11-21T14:34:02.685Z,7.17
2018-11-21T14:36:31.189Z,8.30
2018-11-21T14:38:59.578Z,9.43
2018-11-21T14:41:27.876Z,8.73
2018-11-21T14:43:56.015Z,8.70
2018-11-21T14:46:24.100Z,8.27
2018-11-21T14:48:52.222Z,6.97
2018-11-21T14:51:20.577Z,7.20
2018-11-21T14:53:48.697Z,7.47
2018-11-21T14:56:16.799Z,6.80
2018-11-21T14:58:45.044Z,8.23
2018-11-21T15:01:13.169Z,7.63
2018-11-21T15:03:41.661Z,8.20
2018-11-21T15:06:09.826Z,8.77
2018-11-21T15:08:37.833Z,7.03
2018-11-21T15:11:05.900Z,7.00
2018-11-21T15:13:34.053Z,8.33
2018-11-21T15:16:02.238Z,8.20
2018-11-21T15:18:30.400Z,7.83
2018-11-21T15:20:58.715Z,7.43
2018-11-21T15:23:26.839Z,9.37
2018-11-21T15:25:55.550Z,8.97
2018-11-21T15:28:23.688Z,7.70
2018-11-21T15:30:51.785Z,9.33
2018-11-21T15:33:19.954Z,8.33
2018-11-21T15:35:48.177Z,9.00
2018-11-21T15:38:16.523Z,8.13
2018-11-21T15:40:47.017Z,8.30
2018-11-21T15:43:13.252Z,9.37
2018-11-21T15:45:41.315Z,7.87
2018-11-21T15:48:09.702Z,9.17
2018-11-21T15:50:37.710Z,8.87
2018-11-21T15:53:05.815Z,9.97
2018-11-21T15:55:33.887Z,9.33
2018-11-21T15:58:01.974Z,7.90
2018-11-21T16:00:32.307Z,7.90
2018-11-21T16:03:02.450Z,8.83
2018-11-21T16:05:30.959Z,9.70
2018-11-21T16:08:03.248Z,9.03
2018-11-21T16:10:41.246Z,8.60
2018-11-21T16:13:09.437Z,7.07
2018-11-21T16:15:48.345Z,8.10
2018-11-21T16:18:17.327Z,9.90
2018-11-21T16:20:45.396Z,8.93
2018-11-21T16:23:13.709Z,9.53
2018-11-21T16:25:41.821Z,8.70
2018-11-21T16:28:10.551Z,9.77
2018-11-21T16:30:38.761Z,7.43
2018-11-21T16:33:06.878Z,9.03
2018-11-21T16:35:34.958Z,7.83
2018-11-21T16:38:03.303Z,9.10
2018-11-21T16:40:32.361Z,8.63
2018-11-21T16:43:01.031Z,8.87
2018-11-21T16:45:31.087Z,8.63
2018-11-21T16:47:59.823Z,8.53
2018-11-21T16:50:27.936Z,9.20
2018-11-21T16:52:56.281Z,9.97
2018-11-21T16:55:25.695Z,9.23
2018-11-21T16:57:55.021Z,8.23
2018-11-21T17:00:36.826Z,8.20
2018-11-21T17:03:05.247Z,9.83
2018-11-21T17:05:33.353Z,10.23
2018-11-21T17:08:02.022Z,9.27
2018-11-21T17:10:31.220Z,8.90
2018-11-21T17:12:59.353Z,8.30
2018-11-21T17:15:29.207Z,9.43
2018-11-21T17:17:57.886Z,9.40
2018-11-21T17:20:30.506Z,9.90
2018-11-21T17:22:59.290Z,9.77
2018-11-21T17:25:29.428Z,8.87
2018-11-21T17:27:57.832Z,9.13
2018-11-21T17:30:26.012Z,8.37
2018-11-21T17:32:54.209Z,7.87
2018-11-21T17:35:22.858Z,9.50
2018-11-21T17:37:51.302Z,7.60
2018-11-21T17:40:22.766Z,8.97
2018-11-21T17:42:50.923Z,8.97
2018-11-21T17:45:19.466Z,9.53
2018-11-21T17:47:47.550Z,9.13
2018-11-21T17:50:17.203Z,10.40
2018-11-21T17:52:45.705Z,10.33
2018-11-21T17:55:15.403Z,9.60
2018-11-21T17:57:43.450Z,7.13
2018-11-21T18:00:19.479Z,9.47
2018-11-21T18:02:47.887Z,9.37
2018-11-21T18:05:26.882Z,8.73
2018-11-21T18:07:55.010Z,7.93
2018-11-21T18:10:24.604Z,6.67
2018-11-21T18:12:52.915Z,8.90
2018-11-21T18:15:23.021Z,9.37
2018-11-21T18:20:47.156Z,9.00
2018-11-21T18:23:16.465Z,10.43
2018-11-21T18:25:24.364Z,8.80
2018-11-21T18:27:52.485Z,8.90
2018-11-21T18:30:21.882Z,8.27
2018-11-21T18:32:50.026Z,8.33
2018-11-21T18:35:19.620Z,10.07
2018-11-21T18:37:48.192Z,8.67
2018-11-21T18:40:17.754Z,11.17
2018-11-21T18:42:45.846Z,8.13
2018-11-21T18:45:16.801Z,8.57
2018-11-21T18:47:45.357Z,10.00
2018-11-21T18:50:14.861Z,10.50
2018-11-21T18:52:42.918Z,8.87
2018-11-21T18:55:13.703Z,9.20
2018-11-21T18:58:28.787Z,10.33
2018-11-21T19:00:57.304Z,9.43
2018-11-21T19:03:25.533Z,9.33
2018-11-21T19:05:53.555Z,9.37
2018-11-21T19:08:21.734Z,9.27
2018-11-21T19:10:50.550Z,11.17
2018-11-21T19:13:19.061Z,11.10
2018-11-21T19:15:47.423Z,10.37
2018-11-21T19:18:15.733Z,9.23
2018-11-21T19:20:43.854Z,10.83
2018-11-21T19:23:12.376Z,9.83
2018-11-21T19:25:40.542Z,10.77
2018-11-21T19:28:08.852Z,8.77
2018-11-21T19:30:37.006Z,9.47
2018-11-21T19:33:05.559Z,10.60
2018-11-21T19:35:33.888Z,9.87
2018-11-21T19:38:01.957Z,9.83
2018-11-21T19:40:30.050Z,10.83
2018-11-21T19:42:58.164Z,10.67
2018-11-21T19:45:26.767Z,10.80
2018-11-21T19:47:55.217Z,10.97
2018-11-21T19:50:23.491Z,9.73
2018-11-21T19:52:51.859Z,12.03
2018-11-21T19:55:24.754Z,12.07
2018-11-21T19:57:53.122Z,10.20
2018-11-21T20:00:22.737Z,10.77
2018-11-21T20:02:51.116Z,9.83
2018-11-21T20:05:19.376Z,8.90
2018-11-21T20:07:47.747Z,10.13
2018-11-21T20:10:16.562Z,10.07
2018-11-21T20:12:44.699Z,11.50
2018-11-21T20:15:17.405Z,11.20
2018-11-21T20:17:47.306Z,10.93
2018-11-21T20:20:16.846Z,10.67
2018-11-21T20:22:45.209Z,9.43
2018-11-21T20:25:14.517Z,10.43
2018-11-21T20:27:42.835Z,11.13
2018-11-21T20:30:13.741Z,11.00
2018-11-21T20:32:42.029Z,11.27
2018-11-21T20:35:10.902Z,10.57
2018-11-21T20:37:39.714Z,11.33
2018-11-21T20:40:13.887Z,9.67
2018-11-21T20:42:42.510Z,10.23
2018-11-21T20:45:13.746Z,10.93
2018-11-21T20:47:42.267Z,11.70
2018-11-21T20:50:10.453Z,10.97
2018-11-21T20:52:38.636Z,10.83
2018-11-21T20:55:07.569Z,11.57
2018-11-21T20:57:35.611Z,10.90
2018-11-21T21:00:04.251Z,10.53
2018-11-21T21:02:32.369Z,10.93
2018-11-21T21:05:00.516Z,10.50
2018-11-21T21:07:28.635Z,10.73
2018-11-21T21:09:57.047Z,10.40
2018-11-21T21:12:25.086Z,10.30
2018-11-21T21:14:53.135Z,10.70
2018-11-21T21:17:21.588Z,9.57
2018-11-21T21:19:50.129Z,11.77
2018-11-21T21:22:18.565Z,9.70
2018-11-21T21:24:46.700Z,10.90
2018-11-21T21:27:15.083Z,11.13
2018-11-21T21:29:43.643Z,9.83
2018-11-21T21:32:11.756Z,10.50
2018-11-21T21:34:39.805Z,9.33
2018-11-21T21:37:08.278Z,9.90
2018-11-21T21:39:36.327Z,9.67
2018-11-21T21:42:04.778Z,10.47
2018-11-21T21:44:32.873Z,9.30
2018-11-21T21:47:01.422Z,11.07
2018-11-21T21:49:29.566Z,10.67
2018-11-21T21:51:57.685Z,8.40
